createdAt,value
2022-08-24T00:03:59.859Z,12.33
2022-08-24T00:08:59.581Z,7.30
2022-08-24T00:13:58.336Z,7.40
2022-08-24T00:18:57.109Z,7.70
2022-08-24T00:23:56.897Z,7.10
2022-08-24T00:28:55.274Z,6.70
2022-08-24T00:33:53.606Z,7.90
2022-08-24T00:38:52.567Z,8.33
2022-08-24T00:43:57.315Z,8.33
2022-08-24T00:49:02.745Z,7.20
2022-08-24T00:54:06.999Z,6.90
2022-08-24T00:59:11.529Z,8.27
2022-08-24T01:04:15.676Z,14.90
2022-08-24T01:09:14.201Z,6.37
2022-08-24T01:14:17.631Z,10.90
2022-08-24T01:19:23.675Z,10.17
2022-08-24T01:24:23.511Z,5.63
2022-08-24T01:29:26.321Z,8.30
2022-08-24T01:34:24.897Z,7.10
2022-08-24T01:39:28.853Z,8.37
2022-08-24T01:44:29.361Z,7.40
2022-08-24T01:49:32.354Z,6.53
2022-08-24T01:54:32.531Z,5.47
2022-08-24T01:59:31.241Z,6.30
2022-08-24T02:04:29.685Z,7.53
2022-08-24T02:09:32.866Z,12.10
2022-08-24T02:14:34.339Z,8.63
2022-08-24T02:19:34.384Z,9.10
2022-08-24T02:24:33.156Z,9.03
2022-08-24T02:29:33.690Z,9.10
2022-08-24T02:34:32.082Z,9.03
2022-08-24T02:39:30.682Z,8.70
2022-08-24T02:44:35.147Z,8.20
2022-08-24T02:49:33.512Z,13.30
2022-08-24T02:54:32.095Z,9.10
2022-08-24T02:59:30.820Z,9.90
2022-08-24T03:04:30.715Z,11.30
2022-08-24T03:09:31.858Z,9.00
2022-08-24T03:14:30.433Z,11.40
2022-08-24T03:19:30.263Z,13.80
2022-08-24T03:24:28.818Z,11.60
2022-08-24T03:29:27.934Z,10.03
2022-08-24T03:34:33.336Z,10.20
2022-08-24T03:39:31.945Z,8.60
2022-08-24T03:44:30.230Z,9.20
2022-08-24T03:49:29.107Z,10.20
2022-08-24T03:54:30.200Z,12.60
2022-08-24T03:59:28.573Z,14.07
2022-08-24T04:04:30.467Z,6.90
2022-08-24T04:09:30.227Z,6.80
2022-08-24T04:14:28.922Z,8.73
2022-08-24T04:19:34.721Z,10.13
2022-08-24T04:24:34.498Z,8.27
2022-08-24T04:29:34.162Z,11.73
2022-08-24T04:34:32.473Z,10.60
2022-08-24T04:39:30.856Z,14.13
2022-08-24T04:44:50.454Z,9.47
2022-08-24T04:49:52.684Z,14.70
2022-08-24T04:54:51.529Z,20.27
2022-08-24T04:59:59.214Z,10.00
2022-08-24T05:04:58.127Z,16.83
2022-08-24T05:09:56.582Z,8.93
2022-08-24T05:14:58.952Z,14.63
2022-08-24T05:19:58.512Z,10.97
2022-08-24T05:24:56.876Z,13.57
2022-08-24T05:29:55.907Z,12.23
2022-08-24T05:34:56.315Z,12.97
2022-08-24T05:39:55.490Z,30.23
2022-08-24T05:44:53.828Z,11.10
2022-08-24T05:49:54.221Z,15.23
2022-08-24T05:54:56.096Z,12.53
2022-08-24T05:59:54.834Z,7.73
2022-08-24T06:04:53.828Z,16.13
2022-08-24T06:09:54.230Z,11.73
2022-08-24T06:14:52.612Z,9.83
2022-08-24T06:19:54.563Z,9.50
2022-08-24T06:25:11.695Z,7.70
2022-08-24T06:30:12.586Z,9.10
2022-08-24T06:35:16.551Z,12.17
2022-08-24T06:40:16.761Z,13.90
2022-08-24T06:45:15.699Z,14.43
2022-08-24T06:50:14.298Z,7.83
2022-08-24T06:55:13.044Z,11.30
2022-08-24T07:00:14.775Z,17.30
2022-08-24T07:05:14.061Z,17.73
2022-08-24T07:10:31.097Z,12.03
2022-08-24T07:15:31.196Z,8.00
2022-08-24T07:20:43.691Z,56.67
2022-08-24T07:26:09.434Z,77.80
2022-08-24T07:31:13.811Z,33.77
2022-08-24T07:36:21.899Z,21.40
2022-08-24T07:41:51.364Z,23.07
2022-08-24T07:46:43.359Z,18.13
2022-08-24T07:51:43.781Z,9.30
2022-08-24T07:56:45.301Z,12.47
2022-08-24T08:01:45.953Z,12.53
2022-08-24T08:06:44.505Z,20.40
2022-08-24T08:11:43.108Z,12.70
2022-08-24T08:16:41.620Z,15.67
2022-08-24T08:22:02.756Z,52.97
2022-08-24T08:27:05.187Z,13.93
2022-08-24T08:32:14.664Z,12.70
2022-08-24T08:37:15.094Z,14.43
2022-08-24T08:42:41.510Z,14.53
2022-08-24T08:48:32.009Z,13.80
2022-08-24T08:54:09.158Z,17.47
2022-08-24T08:59:28.040Z,32.63
2022-08-24T09:04:48.774Z,18.20
2022-08-24T09:10:03.373Z,16.73
2022-08-24T09:15:18.576Z,21.03
2022-08-24T09:20:35.763Z,19.77
2022-08-24T09:25:41.288Z,18.20
2022-08-24T09:31:23.123Z,18.90
2022-08-24T09:36:31.207Z,19.97
2022-08-24T09:41:54.627Z,22.90
2022-08-24T09:47:32.818Z,22.97
2022-08-24T09:53:21.774Z,23.80
2022-08-24T09:58:35.357Z,40.37
2022-08-24T10:03:52.325Z,27.17
2022-08-24T10:09:09.388Z,24.10
2022-08-24T10:14:18.043Z,27.67
2022-08-24T10:19:37.762Z,28.47
2022-08-24T10:24:47.100Z,26.27
2022-08-24T10:30:15.229Z,29.60
2022-08-24T10:35:28.214Z,35.40
2022-08-24T10:40:36.894Z,27.07
2022-08-24T10:46:03.646Z,27.57
2022-08-24T10:51:17.889Z,27.60
2022-08-24T10:56:20.172Z,35.30
2022-08-24T11:01:27.773Z,29.37
2022-08-24T11:06:30.883Z,29.80
2022-08-24T11:11:32.615Z,26.57
2022-08-24T11:16:34.542Z,27.93
2022-08-24T11:21:42.205Z,32.30
2022-08-24T11:26:53.698Z,29.00
2022-08-24T11:31:54.185Z,29.20
2022-08-24T11:36:53.834Z,31.00
2022-08-24T11:42:00.108Z,37.60
2022-08-24T11:47:06.635Z,52.23
2022-08-24T11:52:13.172Z,35.00
2022-08-24T11:57:16.463Z,34.47
2022-08-24T12:02:23.941Z,36.20
2022-08-24T12:07:33.481Z,41.53
2022-08-24T12:12:38.804Z,41.23
2022-08-24T12:17:45.199Z,63.00
2022-08-24T12:22:47.728Z,40.03
2022-08-24T12:27:46.521Z,43.80
2022-08-24T12:32:49.863Z,42.00
2022-08-24T12:37:53.726Z,37.77
2022-08-24T12:42:56.413Z,39.13
2022-08-24T12:48:01.613Z,39.30
2022-08-24T12:53:40.670Z,39.97
2022-08-24T12:59:03.285Z,39.40
2022-08-24T13:04:10.298Z,39.90
2022-08-24T13:09:16.375Z,44.13
2022-08-24T13:14:21.369Z,66.50
2022-08-24T13:19:39.118Z,43.80
2022-08-24T13:24:48.150Z,38.80
2022-08-24T13:29:54.694Z,47.20
2022-08-24T13:34:53.549Z,41.80
2022-08-24T13:40:08.049Z,38.60
2022-08-24T13:45:24.713Z,40.53
2022-08-24T13:50:34.088Z,38.53
2022-08-24T13:55:45.055Z,40.00
2022-08-24T14:00:48.630Z,66.00
2022-08-24T14:05:51.336Z,36.23
2022-08-24T14:11:05.051Z,36.47
2022-08-24T14:16:28.996Z,34.87
2022-08-24T14:21:41.272Z,32.20
2022-08-24T14:27:09.889Z,47.13
2022-08-24T14:32:31.758Z,36.60
2022-08-24T14:37:39.183Z,30.53
2022-08-24T14:42:43.000Z,32.20
2022-08-24T14:47:57.708Z,33.00
2022-08-24T14:53:10.320Z,30.10
2022-08-24T14:58:23.766Z,27.60
2022-08-24T15:03:49.106Z,24.90
2022-08-24T15:08:47.759Z,28.10
2022-08-24T15:13:54.047Z,26.33
2022-08-24T15:19:04.696Z,26.43
2022-08-24T15:24:16.694Z,36.37
2022-08-24T15:29:20.076Z,28.40
2022-08-24T15:34:18.700Z,24.27
2022-08-24T15:39:26.981Z,24.07
2022-08-24T15:44:30.727Z,26.80
2022-08-24T15:49:31.372Z,24.97
2022-08-24T15:54:33.925Z,25.20
2022-08-24T15:59:46.938Z,25.17
2022-08-24T16:04:49.003Z,20.80
2022-08-24T16:09:47.639Z,20.53
2022-08-24T16:14:52.592Z,23.63
2022-08-24T16:19:53.612Z,19.83
2022-08-24T16:25:16.727Z,25.07
2022-08-24T16:30:24.795Z,19.50
2022-08-24T16:35:25.409Z,19.90
2022-08-24T16:40:24.683Z,22.00
2022-08-24T16:45:24.989Z,21.67
2022-08-24T16:50:27.577Z,21.80
2022-08-24T16:55:28.755Z,20.13
2022-08-24T17:00:29.268Z,18.73
2022-08-24T17:05:29.369Z,18.80
2022-08-24T17:10:29.752Z,20.43
2022-08-24T17:15:29.471Z,18.93
2022-08-24T17:20:27.818Z,19.87
2022-08-24T17:25:26.999Z,17.80
2022-08-24T17:30:30.854Z,15.13
2022-08-24T17:35:29.395Z,21.00
2022-08-24T17:40:29.915Z,16.27
2022-08-24T17:45:29.685Z,17.17
2022-08-24T17:50:28.606Z,16.53
2022-08-24T17:55:27.377Z,18.30
2022-08-24T18:00:26.030Z,15.23
2022-08-24T18:05:26.314Z,19.43
2022-08-24T18:10:28.215Z,16.53
2022-08-24T18:15:34.561Z,13.67
2022-08-24T18:20:40.661Z,14.00
2022-08-24T18:25:44.926Z,15.50
2022-08-24T18:30:44.075Z,15.73
2022-08-24T18:35:44.355Z,13.93
2022-08-24T18:40:52.487Z,13.70
2022-08-24T18:45:52.803Z,15.53
2022-08-24T18:50:53.539Z,13.90
2022-08-24T18:55:53.899Z,14.40
2022-08-24T19:00:52.775Z,12.63
2022-08-24T19:05:52.556Z,13.37
2022-08-24T19:10:51.701Z,16.10
2022-08-24T19:15:51.119Z,15.23
2022-08-24T19:20:54.209Z,12.50
2022-08-24T19:25:53.372Z,14.83
2022-08-24T19:30:54.511Z,12.43
2022-08-24T19:35:55.166Z,14.03
2022-08-24T19:40:53.626Z,16.50
2022-08-24T19:46:05.578Z,13.80
2022-08-24T19:51:07.382Z,16.90
2022-08-24T19:56:06.929Z,14.13
2022-08-24T20:01:11.681Z,11.63
2022-08-24T20:06:11.799Z,12.20
2022-08-24T20:11:10.465Z,12.60
2022-08-24T20:16:11.811Z,12.50
2022-08-24T20:21:17.294Z,13.20
2022-08-24T20:26:15.822Z,16.10
2022-08-24T20:31:15.049Z,24.30
2022-08-24T20:36:23.929Z,20.67
2022-08-24T20:41:22.436Z,13.80
2022-08-24T20:46:21.534Z,12.60
2022-08-24T20:51:19.879Z,12.37
2022-08-24T20:56:30.689Z,13.80
2022-08-24T21:01:30.125Z,17.23
2022-08-24T21:06:28.403Z,11.93
2022-08-24T21:11:29.443Z,10.13
2022-08-24T21:16:28.097Z,9.60
2022-08-24T21:21:26.477Z,11.83
2022-08-24T21:26:28.413Z,10.40
2022-08-24T21:31:26.807Z,10.87
2022-08-24T21:36:26.365Z,11.87
2022-08-24T21:41:24.835Z,13.40
2022-08-24T21:46:31.999Z,9.43
2022-08-24T21:51:30.405Z,9.77
2022-08-24T21:56:31.645Z,10.30
2022-08-24T22:01:31.448Z,9.90
2022-08-24T22:06:31.701Z,10.50
2022-08-24T22:11:30.729Z,9.80
2022-08-24T22:16:30.759Z,9.30
2022-08-24T22:21:36.122Z,10.67
2022-08-24T22:26:35.816Z,10.40
2022-08-24T22:31:38.251Z,8.70
2022-08-24T22:36:37.033Z,9.57
2022-08-24T22:41:35.895Z,9.50
2022-08-24T22:46:36.465Z,10.87
2022-08-24T22:51:35.620Z,11.07
2022-08-24T22:56:37.008Z,10.17
2022-08-24T23:01:38.889Z,11.40
2022-08-24T23:06:37.658Z,10.47
2022-08-24T23:11:35.958Z,11.00
2022-08-24T23:16:38.551Z,8.93
2022-08-24T23:21:36.944Z,15.43
2022-08-24T23:26:35.340Z,11.90
2022-08-24T23:31:33.893Z,10.87
2022-08-24T23:36:33.782Z,12.90
2022-08-24T23:41:34.077Z,9.80
2022-08-24T23:46:33.004Z,8.90
2022-08-24T23:51:31.653Z,11.23
2022-08-24T23:56:34.498Z,13.60
